Time;durP1;ratioP1;P1;durP2;ratioP2;P2;SDS_P1;SDS_P2;PMS_P1;PMS_P2;Temp;Humidity;BMP_temperature;BMP_pressure;BME280_temperature;BME280_humidity;BME280_pressure;Samples;Min_cycle;Max_cycle;Signal;HPM_P1;HPM_P2
2022/11/02 00:00:31;;;;;;;8.75;2.03;;;;;;;;;;5013351;28;20050;-91
2022/11/02 00:02:58;;;;;;;6.85;1.70;;;;;;;;;;5012727;28;20053;-90
2022/11/02 00:05:26;;;;;;;6.80;2.05;;;;;;;;;;5021092;28;20050;-91
2022/11/02 00:07:54;;;;;;;8.30;1.77;;;;;;;;;;5030371;28;20158;-90
2022/11/02 00:10:22;;;;;;;7.80;2.25;;;;;;;;;;5012254;28;20063;-91
2022/11/02 00:12:50;;;;;;;8.23;1.83;;;;;;;;;;5013069;28;20053;-90
2022/11/02 00:15:20;;;;;;;9.18;2.10;;;;;;;;;;5012455;28;20149;-91
2022/11/02 00:17:52;;;;;;;9.20;2.25;;;;;;;;;;5012771;28;20490;-91
2022/11/02 00:20:20;;;;;;;5.38;2.22;;;;;;;;;;5012665;28;20050;-91
2022/11/02 00:22:49;;;;;;;9.50;2.05;;;;;;;;;;5012570;28;20054;-91
2022/11/02 00:25:17;;;;;;;7.43;2.03;;;;;;;;;;5012489;28;20060;-91
2022/11/02 00:27:45;;;;;;;12.35;2.22;;;;;;;;;;5012773;28;20049;-92
2022/11/02 00:30:12;;;;;;;5.68;2.00;;;;;;;;;;5012753;28;20049;-91
2022/11/02 00:32:39;;;;;;;5.22;2.60;;;;;;;;;;5012522;28;20049;-91
2022/11/02 00:35:07;;;;;;;9.57;2.13;;;;;;;;;;5012631;28;20057;-90
2022/11/02 00:37:34;;;;;;;10.63;2.10;;;;;;;;;;5012697;28;20060;-91
2022/11/02 00:40:02;;;;;;;4.07;2.25;;;;;;;;;;5012566;28;20407;-90
2022/11/02 00:42:29;;;;;;;6.40;2.00;;;;;;;;;;5012455;28;20060;-91
2022/11/02 00:44:56;;;;;;;6.60;2.25;;;;;;;;;;5012428;28;20072;-91
2022/11/02 00:47:23;;;;;;;5.72;2.28;;;;;;;;;;5012508;28;20045;-92
2022/11/02 00:49:51;;;;;;;9.75;2.35;;;;;;;;;;5012372;28;20058;-91
2022/11/02 00:52:18;;;;;;;5.13;1.85;;;;;;;;;;5012656;28;20046;-91
2022/11/02 00:54:45;;;;;;;4.93;2.17;;;;;;;;;;5012419;28;20064;-91
2022/11/02 00:57:13;;;;;;;7.47;2.13;;;;;;;;;;5012441;28;20501;-91
2022/11/02 00:59:40;;;;;;;10.23;2.20;;;;;;;;;;5012468;28;20410;-92
2022/11/02 01:02:08;;;;;;;10.48;2.97;;;;;;;;;;5011984;28;20054;-91
2022/11/02 01:04:35;;;;;;;10.75;2.95;;;;;;;;;;5012263;28;20046;-92
2022/11/02 01:07:03;;;;;;;9.68;2.33;;;;;;;;;;5012557;28;20069;-91
2022/11/02 01:09:30;;;;;;;8.00;3.15;;;;;;;;;;5012384;28;20133;-91
2022/11/02 01:11:57;;;;;;;8.35;2.75;;;;;;;;;;5012468;28;20050;-90
2022/11/02 01:14:25;;;;;;;20.85;3.85;;;;;;;;;;5012167;28;20072;-92
2022/11/02 01:16:52;;;;;;;9.93;3.10;;;;;;;;;;5012306;28;20054;-91
2022/11/02 01:19:19;;;;;;;15.15;3.00;;;;;;;;;;5012284;28;20054;-92
2022/11/02 01:21:46;;;;;;;7.43;2.55;;;;;;;;;;5022326;28;20052;-92
2022/11/02 01:24:14;;;;;;;9.65;2.65;;;;;;;;;;5033297;28;20078;-92
2022/11/02 01:26:42;;;;;;;11.55;2.60;;;;;;;;;;5016019;28;20133;-92
2022/11/02 01:29:09;;;;;;;10.25;2.55;;;;;;;;;;5015698;28;20142;-90
2022/11/02 01:31:36;;;;;;;17.25;2.83;;;;;;;;;;5015699;28;20054;-91
2022/11/02 01:34:03;;;;;;;7.03;2.80;;;;;;;;;;5015864;28;20482;-91
2022/11/02 01:36:31;;;;;;;8.93;2.78;;;;;;;;;;5015637;28;20146;-92
2022/11/02 01:38:58;;;;;;;10.10;2.78;;;;;;;;;;5015885;28;20046;-92
2022/11/02 01:41:25;;;;;;;6.22;2.72;;;;;;;;;;5015931;28;20054;-92
2022/11/02 01:43:54;;;;;;;9.85;2.75;;;;;;;;;;5015485;28;20052;-92
2022/11/02 01:46:23;;;;;;;10.43;2.65;;;;;;;;;;5015347;28;20133;-92
2022/11/02 01:48:57;;;;;;;10.25;3.03;;;;;;;;;;5015753;28;20050;-91
2022/11/02 01:51:31;;;;;;;8.32;3.08;;;;;;;;;;5015644;28;20050;-92
2022/11/02 01:54:02;;;;;;;12.02;3.40;;;;;;;;;;5015343;28;20490;-92
2022/11/02 01:56:30;;;;;;;10.75;2.88;;;;;;;;;;5015255;28;20050;-92
2022/11/02 01:59:01;;;;;;;19.10;3.95;;;;;;;;;;5015221;28;20570;-91
2022/11/02 02:01:28;;;;;;;13.35;4.07;;;;;;;;;;5014889;28;20145;-91
2022/11/02 02:03:56;;;;;;;15.15;3.72;;;;;;;;;;5015170;28;20053;-92
2022/11/02 02:06:27;;;;;;;14.45;3.70;;;;;;;;;;5015987;28;20058;-91
2022/11/02 02:08:56;;;;;;;8.02;3.28;;;;;;;;;;5014899;28;20053;-91
2022/11/02 02:11:31;;;;;;;10.07;4.18;;;;;;;;;;5014830;28;20056;-92
2022/11/02 02:14:06;;;;;;;22.63;4.00;;;;;;;;;;5014770;28;20061;-93
2022/11/02 02:16:39;;;;;;;13.98;4.80;;;;;;;;;;5014959;28;20050;-92
2022/11/02 02:19:07;;;;;;;;;;;;;;;;;;5015126;28;20402;-90
2022/11/02 02:21:37;;;;;;;9.70;3.35;;;;;;;;;;5014339;28;19927;-91
2022/11/02 02:24:20;;;;;;;11.60;3.55;;;;;;;;;;5014506;28;20046;-90
2022/11/02 02:27:07;;;;;;;12.38;4.00;;;;;;;;;;5014641;28;20084;-90
2022/11/02 02:29:41;;;;;;;14.07;4.22;;;;;;;;;;5014460;28;20064;-91
2022/11/02 02:32:18;;;;;;;12.77;3.42;;;;;;;;;;5014196;28;20072;-91
2022/11/02 02:34:51;;;;;;;13.63;2.85;;;;;;;;;;5014305;28;20141;-90
2022/11/02 02:37:25;;;;;;;16.60;2.67;;;;;;;;;;5024667;28;20056;-91
2022/11/02 02:39:52;;;;;;;10.32;1.92;;;;;;;;;;5031653;28;20585;-93
2022/11/02 02:42:22;;;;;;;10.55;1.92;;;;;;;;;;5014309;28;20387;-90
2022/11/02 02:45:09;;;;;;;7.15;1.88;;;;;;;;;;5016095;28;20050;-89
2022/11/02 02:47:39;;;;;;;11.77;2.28;;;;;;;;;;5033453;28;20144;-91
2022/11/02 02:50:14;;;;;;;6.88;1.80;;;;;;;;;;5033891;28;20489;-90
2022/11/02 02:52:42;;;;;;;10.55;1.45;;;;;;;;;;5033942;28;20053;-90
2022/11/02 02:55:35;;;;;;;9.50;1.55;;;;;;;;;;5033642;28;20063;-90
2022/11/02 02:58:05;;;;;;;11.13;1.67;;;;;;;;;;5030140;28;20515;-88
2022/11/02 03:00:33;;;;;;;8.40;1.65;;;;;;;;;;5033494;28;20056;-91
2022/11/02 03:03:02;;;;;;;11.45;2.08;;;;;;;;;;5033004;28;20057;-90
2022/11/02 03:05:32;;;;;;;8.30;1.52;;;;;;;;;;5033266;28;20049;-90
2022/11/02 03:08:07;;;;;;;11.70;1.88;;;;;;;;;;5033571;28;20140;-87
2022/11/02 03:10:48;;;;;;;2.97;1.30;;;;;;;;;;5033475;28;20056;-90
2022/11/02 03:13:34;;;;;;;3.83;1.50;;;;;;;;;;5033433;28;20504;-92
2022/11/02 03:16:07;;;;;;;5.50;1.90;;;;;;;;;;5033409;28;20087;-91
2022/11/02 03:18:35;;;;;;;;;;;;;;;;;;5034034;28;20107;-90
2022/11/02 03:24:05;;;;;;;5.38;1.38;;;;;;;;;;5013220;28;20056;-83
2022/11/02 03:26:35;;;;;;;9.50;2.33;;;;;;;;;;5014643;28;20057;-84
2022/11/02 03:29:05;;;;;;;11.45;1.80;;;;;;;;;;5029439;28;20056;-84
2022/11/02 03:31:38;;;;;;;8.05;1.70;;;;;;;;;;5029469;28;20046;-84
2022/11/02 03:34:11;;;;;;;8.43;1.70;;;;;;;;;;5014161;28;20050;-81
2022/11/02 03:36:57;;;;;;;10.35;1.83;;;;;;;;;;5014557;28;20423;-85
2022/11/02 03:39:32;;;;;;;10.50;1.80;;;;;;;;;;5014407;28;20129;-84
2022/11/02 03:42:00;;;;;;;6.80;1.33;;;;;;;;;;5014325;28;20496;-82
2022/11/02 03:44:29;;;;;;;9.75;1.75;;;;;;;;;;5011948;28;20427;-80
2022/11/02 03:46:59;;;;;;;7.78;1.85;;;;;;;;;;5013787;28;20056;-83
2022/11/02 03:49:27;;;;;;;15.88;2.20;;;;;;;;;;5014122;28;20496;-83
2022/11/02 03:51:54;;;;;;;6.05;1.50;;;;;;;;;;5012666;28;20132;-84
2022/11/02 03:54:27;;;;;;;7.00;1.73;;;;;;;;;;5012704;28;20050;-84
2022/11/02 03:56:57;;;;;;;3.58;1.20;;;;;;;;;;5012162;28;20507;-83
2022/11/02 03:59:24;;;;;;;4.80;1.63;;;;;;;;;;5013091;28;20447;-83
2022/11/02 04:01:51;;;;;;;4.45;1.50;;;;;;;;;;5012385;28;20141;-84
2022/11/02 04:04:19;;;;;;;7.13;1.70;;;;;;;;;;5013661;28;20062;-84
2022/11/02 04:06:47;;;;;;;5.90;1.45;;;;;;;;;;5013712;28;20088;-84
2022/11/02 04:09:14;;;;;;;6.53;1.85;;;;;;;;;;5012369;28;20050;-84
2022/11/02 04:14:37;;;;;;;7.60;1.50;;;;;;;;;;5013490;28;20057;-85
2022/11/02 04:19:50;;;;;;;5.07;1.30;;;;;;;;;;5013159;28;20471;-83
2022/11/02 04:25:19;;;;;;;11.80;1.50;;;;;;;;;;5033184;28;20055;-81
2022/11/02 04:27:47;;;;;;;11.20;1.50;;;;;;;;;;5032272;28;20081;-81
2022/11/02 04:30:15;;;;;;;1.88;0.95;;;;;;;;;;5033464;28;20049;-84
2022/11/02 04:35:30;;;;;;;5.20;1.42;;;;;;;;;;5033456;28;20419;-82
2022/11/02 04:40:44;;;;;;;9.13;1.85;;;;;;;;;;5032650;28;20053;-83
2022/11/02 04:43:11;;;;;;;9.85;2.10;;;;;;;;;;5032722;28;20053;-83
2022/11/02 04:45:39;;;;;;;5.63;1.63;;;;;;;;;;5032043;28;20049;-84
2022/11/02 04:48:07;;;;;;;10.13;2.47;;;;;;;;;;5033383;28;20056;-83
2022/11/02 04:50:35;;;;;;;6.70;1.67;;;;;;;;;;5033472;28;20045;-85
2022/11/02 04:53:03;;;;;;;11.45;2.00;;;;;;;;;;5033546;28;20049;-84
2022/11/02 04:55:31;;;;;;;16.67;1.90;;;;;;;;;;5032334;28;20430;-83
2022/11/02 04:57:58;;;;;;;13.18;2.85;;;;;;;;;;5037946;28;20113;-84
2022/11/02 05:00:25;;;;;;;8.95;1.92;;;;;;;;;;5036715;28;20045;-85
2022/11/02 05:02:52;;;;;;;5.35;2.30;;;;;;;;;;5037619;28;20119;-83
2022/11/02 05:05:20;;;;;;;6.40;1.60;;;;;;;;;;5037352;28;20511;-85
2022/11/02 05:07:47;;;;;;;7.10;1.52;;;;;;;;;;5037486;28;20046;-83
2022/11/02 05:10:14;;;;;;;4.75;1.42;;;;;;;;;;5036567;28;20045;-84
2022/11/02 05:12:42;;;;;;;7.53;2.28;;;;;;;;;;5070474;23;20153;-84
2022/11/02 05:15:09;;;;;;;9.20;2.00;;;;;;;;;;5058144;28;20136;-83
2022/11/02 05:17:36;;;;;;;10.60;2.17;;;;;;;;;;5062061;28;20049;-82
2022/11/02 05:20:03;;;;;;;12.55;2.50;;;;;;;;;;5059327;28;20053;-83
2022/11/02 05:22:31;;;;;;;11.00;2.00;;;;;;;;;;5059375;28;20091;-83
2022/11/02 05:24:58;;;;;;;7.45;2.20;;;;;;;;;;5059404;28;20063;-85
2022/11/02 05:27:25;;;;;;;15.77;2.67;;;;;;;;;;5057403;28;20055;-82
2022/11/02 05:29:52;;;;;;;13.80;2.58;;;;;;;;;;5057180;28;20049;-82
2022/11/02 05:32:19;;;;;;;14.57;3.03;;;;;;;;;;5056594;28;20053;-83
2022/11/02 05:34:47;;;;;;;15.02;2.90;;;;;;;;;;5054038;28;20053;-82
2022/11/02 05:37:14;;;;;;;12.43;2.40;;;;;;;;;;5054126;28;20392;-82
2022/11/02 05:39:41;;;;;;;7.45;2.15;;;;;;;;;;5055321;28;20059;-82
2022/11/02 05:42:13;;;;;;;10.52;2.05;;;;;;;;;;5054273;28;20049;-83
2022/11/02 05:44:40;;;;;;;29.58;3.00;;;;;;;;;;5054504;28;20045;-82
2022/11/02 05:47:08;;;;;;;18.13;2.50;;;;;;;;;;5054856;28;20080;-83
2022/11/02 05:49:35;;;;;;;15.10;2.38;;;;;;;;;;5055961;28;20060;-84
2022/11/02 05:52:02;;;;;;;12.82;2.40;;;;;;;;;;5055991;28;20048;-82
2022/11/02 05:54:29;;;;;;;10.32;2.30;;;;;;;;;;5054172;28;20049;-82
2022/11/02 05:56:56;;;;;;;11.95;2.38;;;;;;;;;;5054272;28;20041;-82
2022/11/02 05:59:24;;;;;;;9.77;2.13;;;;;;;;;;5056216;28;20045;-82
2022/11/02 06:01:51;;;;;;;9.30;1.65;;;;;;;;;;5055556;28;20045;-81
2022/11/02 06:04:18;;;;;;;10.25;2.30;;;;;;;;;;5054601;28;20041;-81
2022/11/02 06:06:45;;;;;;;10.77;2.28;;;;;;;;;;5055456;28;20095;-83
2022/11/02 06:09:12;;;;;;;14.38;3.25;;;;;;;;;;5056984;28;20499;-83
2022/11/02 06:11:40;;;;;;;13.43;2.35;;;;;;;;;;5063129;28;20045;-83
2022/11/02 06:14:07;;;;;;;12.98;2.30;;;;;;;;;;5068296;28;20059;-86
2022/11/02 06:16:34;;;;;;;14.30;2.75;;;;;;;;;;5061382;28;20047;-84
2022/11/02 06:19:01;;;;;;;9.50;2.67;;;;;;;;;;5059783;28;20048;-85
2022/11/02 06:21:29;;;;;;;18.23;3.63;;;;;;;;;;5059890;28;20073;-85
2022/11/02 06:23:57;;;;;;;17.85;3.80;;;;;;;;;;5060241;28;20083;-84
2022/11/02 06:26:25;;;;;;;17.38;2.80;;;;;;;;;;5060540;28;20399;-85
2022/11/02 06:28:52;;;;;;;16.08;2.65;;;;;;;;;;5061170;28;20108;-83
2022/11/02 06:31:19;;;;;;;6.63;2.17;;;;;;;;;;5059869;28;20084;-84
2022/11/02 06:33:46;;;;;;;14.88;2.40;;;;;;;;;;5060174;28;20053;-83
2022/11/02 06:36:14;;;;;;;13.70;3.03;;;;;;;;;;5059666;28;20049;-84
2022/11/02 06:38:41;;;;;;;15.93;3.10;;;;;;;;;;5071007;28;20507;-83
2022/11/02 06:41:09;;;;;;;7.30;2.03;;;;;;;;;;5071636;28;20045;-85
2022/11/02 06:43:37;;;;;;;10.90;2.20;;;;;;;;;;5062064;28;20063;-84
2022/11/02 06:46:04;;;;;;;20.65;3.10;;;;;;;;;;5059976;28;20052;-83
2022/11/02 06:48:32;;;;;;;12.38;2.67;;;;;;;;;;5060032;28;20109;-83
2022/11/02 06:51:02;;;;;;;14.40;2.42;;;;;;;;;;5059221;28;20051;-84
2022/11/02 06:53:29;;;;;;;7.53;2.17;;;;;;;;;;5060281;28;20127;-84
2022/11/02 06:55:57;;;;;;;8.80;1.90;;;;;;;;;;5058197;28;20049;-84
2022/11/02 06:58:25;;;;;;;8.82;1.73;;;;;;;;;;5060293;28;20055;-83
2022/11/02 07:01:02;;;;;;;12.98;2.72;;;;;;;;;;5058165;28;20059;-84
2022/11/02 07:03:30;;;;;;;10.40;2.63;;;;;;;;;;5057774;28;20128;-84
2022/11/02 07:05:57;;;;;;;8.43;1.88;;;;;;;;;;5057679;28;20314;-85
2022/11/02 07:08:26;;;;;;;16.00;2.55;;;;;;;;;;5057384;28;20052;-84
2022/11/02 07:10:53;;;;;;;17.20;1.85;;;;;;;;;;5058232;28;20051;-82
2022/11/02 07:13:20;;;;;;;20.38;1.90;;;;;;;;;;5057398;28;20147;-83
2022/11/02 07:15:50;;;;;;;11.45;2.53;;;;;;;;;;5057752;28;20055;-85
2022/11/02 07:18:18;;;;;;;17.83;2.50;;;;;;;;;;5058647;28;20053;-83
2022/11/02 07:20:45;;;;;;;6.90;1.95;;;;;;;;;;5055709;28;20048;-83
2022/11/02 07:23:12;;;;;;;5.55;2.05;;;;;;;;;;5056779;28;20045;-85
2022/11/02 07:25:40;;;;;;;16.85;2.45;;;;;;;;;;5055993;28;20052;-83
2022/11/02 07:28:07;;;;;;;17.38;2.70;;;;;;;;;;5056409;28;20067;-84
2022/11/02 07:30:35;;;;;;;17.73;2.72;;;;;;;;;;5047334;28;20075;-84
2022/11/02 07:33:02;;;;;;;18.58;2.60;;;;;;;;;;5045423;28;20037;-84
2022/11/02 07:35:30;;;;;;;12.20;3.15;;;;;;;;;;5045462;28;20445;-84
2022/11/02 07:38:01;;;;;;;8.85;1.95;;;;;;;;;;5046317;28;20045;-84
2022/11/02 07:40:29;;;;;;;53.65;7.70;;;;;;;;;;5044343;28;20151;-84
2022/11/02 07:42:57;;;;;;;11.50;2.25;;;;;;;;;;5043550;28;20049;-83
2022/11/02 07:45:24;;;;;;;12.82;1.73;;;;;;;;;;5052442;28;20514;-83
2022/11/02 07:47:52;;;;;;;8.88;1.52;;;;;;;;;;5054125;28;20508;-83
2022/11/02 07:50:21;;;;;;;12.60;2.30;;;;;;;;;;5054022;28;20044;-82
2022/11/02 07:52:49;;;;;;;8.95;1.90;;;;;;;;;;5052198;28;20446;-83
2022/11/02 07:55:17;;;;;;;6.10;1.80;;;;;;;;;;5052393;28;20063;-82
2022/11/02 07:58:01;;;;;;;8.68;1.60;;;;;;;;;;5046574;28;20045;-82
2022/11/02 08:00:28;;;;;;;;;;;;;;;;;;5041978;28;20037;-82
2022/11/02 08:02:56;;;;;;;7.90;2.13;;;;;;;;;;5040820;28;20396;-82
2022/11/02 08:05:24;;;;;;;8.35;1.63;;;;;;;;;;5040600;28;20100;-83
2022/11/02 08:07:57;;;;;;;6.43;1.65;;;;;;;;;;5046265;28;20079;-84
2022/11/02 08:10:25;;;;;;;;;;;;;;;;;;5055203;28;20053;-83
2022/11/02 08:12:52;;;;;;;8.05;1.58;;;;;;;;;;5054208;28;19932;-83
2022/11/02 08:15:19;;;;;;;7.25;1.50;;;;;;;;;;5054400;28;20049;-83
2022/11/02 08:17:46;;;;;;;12.40;2.20;;;;;;;;;;5053508;28;20127;-84
2022/11/02 08:20:14;;;;;;;16.95;3.88;;;;;;;;;;5055437;28;20060;-82
2022/11/02 08:22:41;;;;;;;14.60;1.85;;;;;;;;;;5053921;28;20491;-82
2022/11/02 08:25:09;;;;;;;7.32;2.13;;;;;;;;;;5054053;28;20466;-83
2022/11/02 08:27:37;;;;;;;7.32;1.42;;;;;;;;;;5055055;28;20052;-83
2022/11/02 08:30:05;;;;;;;8.10;1.70;;;;;;;;;;5053015;28;20049;-83
2022/11/02 08:32:32;;;;;;;8.88;1.67;;;;;;;;;;5058264;28;20048;-83
2022/11/02 08:34:59;;;;;;;16.90;1.85;;;;;;;;;;5056906;28;20052;-83
2022/11/02 08:37:26;;;;;;;5.95;1.70;;;;;;;;;;5058154;28;20139;-83
2022/11/02 08:39:53;;;;;;;7.88;1.38;;;;;;;;;;5057009;28;20048;-83
2022/11/02 08:42:20;;;;;;;8.52;1.45;;;;;;;;;;5057209;28;20059;-83
2022/11/02 08:44:48;;;;;;;7.63;1.45;;;;;;;;;;5057443;28;20055;-83
2022/11/02 08:47:16;;;;;;;5.88;1.52;;;;;;;;;;5056317;28;20049;-83
2022/11/02 08:49:45;;;;;;;7.70;2.10;;;;;;;;;;5059181;28;20589;-82
2022/11/02 08:52:13;;;;;;;6.18;1.55;;;;;;;;;;5056999;28;20182;-83
2022/11/02 08:54:40;;;;;;;9.07;1.55;;;;;;;;;;5057432;28;20422;-82
2022/11/02 08:57:07;;;;;;;7.45;1.70;;;;;;;;;;5059535;28;20055;-81
2022/11/02 08:59:35;;;;;;;6.90;1.50;;;;;;;;;;5060797;28;20132;-82
2022/11/02 09:02:02;;;;;;;6.18;1.70;;;;;;;;;;5060127;28;20049;-82
2022/11/02 09:04:29;;;;;;;6.40;1.95;;;;;;;;;;5060693;28;20049;-81
2022/11/02 09:06:56;;;;;;;10.48;2.60;;;;;;;;;;5057935;28;20060;-82
2022/11/02 09:09:24;;;;;;;8.32;1.65;;;;;;;;;;5056576;28;20049;-82
2022/11/02 09:11:51;;;;;;;14.63;2.25;;;;;;;;;;5055009;28;20115;-82
2022/11/02 09:14:18;;;;;;;4.20;1.50;;;;;;;;;;5056680;28;20136;-82
2022/11/02 09:16:45;;;;;;;8.93;1.42;;;;;;;;;;5056664;28;20487;-81
2022/11/02 09:19:13;;;;;;;9.57;1.77;;;;;;;;;;5055511;28;20507;-82
2022/11/02 09:21:40;;;;;;;5.18;1.42;;;;;;;;;;5055081;28;20051;-82
2022/11/02 09:24:07;;;;;;;3.47;1.40;;;;;;;;;;5055398;28;20470;-82
2022/11/02 09:26:35;;;;;;;7.63;1.40;;;;;;;;;;5054734;28;20138;-81
2022/11/02 09:29:02;;;;;;;8.68;1.63;;;;;;;;;;5054339;28;20510;-82
2022/11/02 09:31:29;;;;;;;9.55;2.17;;;;;;;;;;5054618;28;20503;-82
2022/11/02 09:33:56;;;;;;;4.43;1.30;;;;;;;;;;5054485;28;20095;-82
2022/11/02 09:36:23;;;;;;;4.85;1.30;;;;;;;;;;5055651;28;20487;-82
2022/11/02 09:38:50;;;;;;;12.65;1.73;;;;;;;;;;5054114;28;20510;-82
2022/11/02 09:41:22;;;;;;;6.88;1.52;;;;;;;;;;5060521;28;20121;-82
2022/11/02 09:44:04;;;;;;;9.60;1.38;;;;;;;;;;5058658;28;20051;-82
2022/11/02 09:46:43;;;;;;;7.28;1.95;;;;;;;;;;5060160;28;20076;-82
2022/11/02 09:49:12;;;;;;;5.85;1.48;;;;;;;;;;5051152;28;20124;-82
2022/11/02 09:51:44;;;;;;;7.78;1.45;;;;;;;;;;5041660;28;20128;-82
2022/11/02 09:54:15;;;;;;;25.60;2.10;;;;;;;;;;5039045;28;20129;-82
2022/11/02 09:56:44;;;;;;;10.85;1.25;;;;;;;;;;5038488;28;20097;-82
2022/11/02 09:59:16;;;;;;;7.43;1.27;;;;;;;;;;5037110;28;20476;-82
2022/11/02 10:01:46;;;;;;;8.00;1.48;;;;;;;;;;5037827;28;20575;-81
2022/11/02 10:04:26;;;;;;;15.20;2.30;;;;;;;;;;5036077;28;20100;-82
2022/11/02 10:07:00;;;;;;;7.03;1.50;;;;;;;;;;5036211;28;20560;-83
2022/11/02 10:09:38;;;;;;;6.40;1.77;;;;;;;;;;5037360;28;20513;-82
2022/11/02 10:12:29;;;;;;;6.15;1.50;;;;;;;;;;5034390;28;20054;-83
2022/11/02 10:14:59;;;;;;;8.55;1.98;;;;;;;;;;5022603;28;20053;-82
2022/11/02 10:17:28;;;;;;;5.47;1.20;;;;;;;;;;5034251;28;20057;-82
2022/11/02 10:19:57;;;;;;;8.98;1.35;;;;;;;;;;5034095;28;20088;-82
2022/11/02 10:22:27;;;;;;;5.70;1.35;;;;;;;;;;5033951;28;20046;-81
2022/11/02 10:24:56;;;;;;;4.43;1.48;;;;;;;;;;5035021;28;20042;-82
2022/11/02 10:27:28;;;;;;;6.43;1.00;;;;;;;;;;5035014;28;20067;-83
2022/11/02 10:29:58;;;;;;;10.98;1.85;;;;;;;;;;5035992;28;20049;-82
2022/11/02 10:32:25;;;;;;;8.85;1.80;;;;;;;;;;5034522;28;20045;-81
2022/11/02 10:34:53;;;;;;;5.53;1.30;;;;;;;;;;5034481;28;20049;-82
2022/11/02 10:37:30;;;;;;;7.05;1.50;;;;;;;;;;5034405;28;20045;-83
2022/11/02 10:40:20;;;;;;;6.45;1.52;;;;;;;;;;5035438;28;20055;-83
2022/11/02 10:43:06;;;;;;;6.05;1.23;;;;;;;;;;5033971;28;20045;-81
2022/11/02 10:45:52;;;;;;;5.63;1.10;;;;;;;;;;5035016;28;20056;-82
2022/11/02 10:48:40;;;;;;;5.97;1.20;;;;;;;;;;5033499;28;20057;-84
2022/11/02 10:51:07;;;;;;;5.80;1.38;;;;;;;;;;5034671;28;20419;-83
2022/11/02 10:53:38;;;;;;;5.18;1.10;;;;;;;;;;5035279;28;20538;-83
2022/11/02 10:56:08;;;;;;;9.25;1.50;;;;;;;;;;5033790;28;20088;-83
2022/11/02 10:58:36;;;;;;;4.00;1.17;;;;;;;;;;5033346;28;20068;-82
2022/11/02 11:01:05;;;;;;;2.55;0.50;;;;;;;;;;5034669;28;20049;-82
2022/11/02 11:03:32;;;;;;;7.32;1.35;;;;;;;;;;5042608;28;20567;-83
2022/11/02 11:06:02;;;;;;;4.93;1.20;;;;;;;;;;5040086;28;20046;-84
2022/11/02 11:08:32;;;;;;;4.78;1.20;;;;;;;;;;5038714;28;20049;-82
2022/11/02 11:11:18;;;;;;;7.90;1.48;;;;;;;;;;5038547;28;20503;-83
2022/11/02 11:13:52;;;;;;;8.68;1.55;;;;;;;;;;5080145;22;20041;-81
2022/11/02 11:16:49;;;;;;;6.88;1.35;;;;;;;;;;5053961;28;20049;-81
2022/11/02 11:19:22;;;;;;;8.25;1.60;;;;;;;;;;5056896;28;20064;-81
2022/11/02 11:22:22;;;;;;;3.42;0.77;;;;;;;;;;5058748;28;20498;-83
2022/11/02 11:24:50;;;;;;;16.17;1.75;;;;;;;;;;5057645;28;20412;-84
2022/11/02 11:27:23;;;;;;;2.05;0.90;;;;;;;;;;5056615;28;20080;-82
2022/11/02 11:29:53;;;;;;;8.35;1.15;;;;;;;;;;5057405;28;20067;-83
2022/11/02 11:32:23;;;;;;;17.73;1.52;;;;;;;;;;5058966;28;20075;-84
2022/11/02 11:34:58;;;;;;;6.72;1.75;;;;;;;;;;5061890;28;20053;-83
2022/11/02 11:37:26;;;;;;;15.30;1.70;;;;;;;;;;5062007;28;20056;-81
2022/11/02 11:40:06;;;;;;;5.55;1.25;;;;;;;;;;5054890;28;20060;-81
2022/11/02 11:42:36;;;;;;;5.30;1.38;;;;;;;;;;5057072;28;20091;-82
2022/11/02 11:45:05;;;;;;;5.57;1.50;;;;;;;;;;5056303;28;20170;-82
2022/11/02 11:47:37;;;;;;;7.30;1.40;;;;;;;;;;5057176;28;20053;-82
2022/11/02 11:50:12;;;;;;;7.75;1.27;;;;;;;;;;5060176;28;20103;-83
2022/11/02 11:53:10;;;;;;;6.13;1.38;;;;;;;;;;5056190;28;20502;-82
2022/11/02 11:55:46;;;;;;;8.25;1.30;;;;;;;;;;5055126;28;20119;-82
2022/11/02 11:58:21;;;;;;;7.22;1.30;;;;;;;;;;5059003;28;20104;-81
2022/11/02 12:01:08;;;;;;;9.85;1.40;;;;;;;;;;5059502;28;20056;-81
2022/11/02 12:03:51;;;;;;;6.28;1.23;;;;;;;;;;5057874;28;20041;-83
2022/11/02 12:06:18;;;;;;;5.40;0.88;;;;;;;;;;5056322;28;20124;-81
2022/11/02 12:08:58;;;;;;;12.10;1.52;;;;;;;;;;5058806;28;20145;-82
2022/11/02 12:11:52;;;;;;;17.30;1.35;;;;;;;;;;5058931;28;20052;-84
2022/11/02 12:14:34;;;;;;;6.50;1.10;;;;;;;;;;5060725;28;20139;-84
2022/11/02 12:17:14;;;;;;;6.95;1.00;;;;;;;;;;5056677;28;20104;-83
2022/11/02 12:19:44;;;;;;;9.00;0.90;;;;;;;;;;5059862;28;20072;-82
2022/11/02 12:22:19;;;;;;;7.95;1.17;;;;;;;;;;5056029;28;20504;-82
2022/11/02 12:24:47;;;;;;;7.43;1.85;;;;;;;;;;5055288;28;20136;-81
2022/11/02 12:27:15;;;;;;;6.03;1.23;;;;;;;;;;5058341;28;20387;-84
2022/11/02 12:29:42;;;;;;;7.32;1.35;;;;;;;;;;5056372;28;20076;-81
2022/11/02 12:32:29;;;;;;;6.18;1.23;;;;;;;;;;5057836;28;20049;-88
2022/11/02 12:35:00;;;;;;;3.67;1.08;;;;;;;;;;5056759;28;20053;-82
2022/11/02 12:37:48;;;;;;;2.78;0.90;;;;;;;;;;5056112;28;20051;-85
2022/11/02 12:40:27;;;;;;;3.97;0.90;;;;;;;;;;5056184;28;20068;-87
2022/11/02 12:43:13;;;;;;;9.98;1.40;;;;;;;;;;5058354;28;20072;-82
2022/11/02 12:46:01;;;;;;;5.65;1.05;;;;;;;;;;5057049;28;20103;-81
2022/11/02 12:48:46;;;;;;;9.45;1.45;;;;;;;;;;5054530;28;20057;-81
2022/11/02 12:51:22;;;;;;;4.38;1.33;;;;;;;;;;5054362;28;20663;-80
2022/11/02 12:53:52;;;;;;;4.93;1.50;;;;;;;;;;5052746;28;20059;-80
2022/11/02 12:56:38;;;;;;;2.88;1.05;;;;;;;;;;5053215;28;20143;-82
2022/11/02 12:59:05;;;;;;;6.57;0.95;;;;;;;;;;5054027;28;20049;-82
2022/11/02 13:01:40;;;;;;;4.63;1.48;;;;;;;;;;5058051;28;20049;-82
2022/11/02 13:04:28;;;;;;;5.90;0.98;;;;;;;;;;5055086;28;20120;-82
2022/11/02 13:07:07;;;;;;;8.48;1.88;;;;;;;;;;5056624;28;20413;-84
2022/11/02 13:09:40;;;;;;;6.00;1.15;;;;;;;;;;5058162;28;20045;-82
2022/11/02 13:12:11;;;;;;;2.80;0.80;;;;;;;;;;5057843;28;20064;-83
2022/11/02 13:14:43;;;;;;;4.22;1.00;;;;;;;;;;5057643;28;20152;-82
2022/11/02 13:17:20;;;;;;;5.68;1.27;;;;;;;;;;5061412;28;20079;-84
2022/11/02 13:19:58;;;;;;;6.90;1.00;;;;;;;;;;5069050;28;20088;-82
2022/11/02 13:22:34;;;;;;;3.47;0.90;;;;;;;;;;5065650;28;20151;-82
2022/11/02 13:25:23;;;;;;;5.35;0.73;;;;;;;;;;5057934;28;20453;-82
2022/11/02 13:27:52;;;;;;;;;;;;;;;;;;5059057;28;20477;-82
2022/11/02 13:30:19;;;;;;;5.68;0.73;;;;;;;;;;5057798;28;20345;-83
2022/11/02 13:32:56;;;;;;;4.78;0.90;;;;;;;;;;5057874;28;20060;-84
2022/11/02 13:35:34;;;;;;;10.95;1.50;;;;;;;;;;5058830;28;20056;-84
2022/11/02 13:38:04;;;;;;;5.93;1.08;;;;;;;;;;5056984;28;20128;-82
2022/11/02 13:40:36;;;;;;;6.00;1.20;;;;;;;;;;5056353;28;20102;-83
2022/11/02 13:43:09;;;;;;;6.60;1.35;;;;;;;;;;5060343;28;20140;-83
2022/11/02 13:45:42;;;;;;;5.35;1.25;;;;;;;;;;5062097;28;20052;-84
2022/11/02 13:48:15;;;;;;;4.68;0.82;;;;;;;;;;5061096;28;20075;-85
2022/11/02 13:50:46;;;;;;;15.38;1.55;;;;;;;;;;5060261;28;20057;-84
2022/11/02 13:53:32;;;;;;;7.70;1.05;;;;;;;;;;5062431;28;20079;-84
2022/11/02 13:56:00;;;;;;;7.20;1.15;;;;;;;;;;5060025;28;20053;-84
2022/11/02 13:58:32;;;;;;;4.00;1.08;;;;;;;;;;5057898;28;20076;-84
2022/11/02 14:01:02;;;;;;;3.30;0.93;;;;;;;;;;5062280;28;20114;-85
2022/11/02 14:03:48;;;;;;;3.03;0.90;;;;;;;;;;5060595;28;20067;-84
2022/11/02 14:06:17;;;;;;;12.48;1.45;;;;;;;;;;5060443;28;20049;-84
2022/11/02 14:08:51;;;;;;;6.22;1.20;;;;;;;;;;5058968;28;20075;-84
2022/11/02 14:11:18;;;;;;;9.32;1.10;;;;;;;;;;5057769;28;20052;-85
2022/11/02 14:13:55;;;;;;;8.57;1.20;;;;;;;;;;5059365;28;20053;-85
2022/11/02 14:16:41;;;;;;;15.00;1.83;;;;;;;;;;5058624;28;20118;-84
2022/11/02 14:19:18;;;;;;;4.53;1.10;;;;;;;;;;5062539;28;20049;-85
2022/11/02 14:21:59;;;;;;;3.20;1.10;;;;;;;;;;5055889;28;20041;-84
2022/11/02 14:24:35;;;;;;;4.70;1.00;;;;;;;;;;5058498;28;20068;-85
2022/11/02 14:27:11;;;;;;;2.75;1.05;;;;;;;;;;5054397;28;20513;-85
2022/11/02 14:29:45;;;;;;;3.10;1.05;;;;;;;;;;5054218;28;20066;-85
2022/11/02 14:32:15;;;;;;;5.35;1.00;;;;;;;;;;5055101;28;20052;-86
2022/11/02 14:34:43;;;;;;;4.20;0.95;;;;;;;;;;5057237;28;20063;-85
2022/11/02 14:37:27;;;;;;;4.65;0.95;;;;;;;;;;5055969;28;20045;-85
2022/11/02 14:39:54;;;;;;;7.10;1.23;;;;;;;;;;5056893;28;20084;-85
2022/11/02 14:42:37;;;;;;;7.07;1.30;;;;;;;;;;5056009;28;20049;-84
2022/11/02 14:45:16;;;;;;;8.32;1.42;;;;;;;;;;5055076;28;20132;-83
2022/11/02 14:47:43;;;;;;;4.43;1.02;;;;;;;;;;5055850;28;20120;-84
2022/11/02 14:50:15;;;;;;;6.40;1.55;;;;;;;;;;5056003;28;20128;-85
2022/11/02 14:52:52;;;;;;;4.63;1.23;;;;;;;;;;5054743;28;20140;-84
2022/11/02 14:55:25;;;;;;;4.45;1.17;;;;;;;;;;5061434;28;20045;-86
2022/11/02 14:57:52;;;;;;;6.35;1.15;;;;;;;;;;5053888;28;20136;-86
2022/11/02 15:00:29;;;;;;;5.20;1.08;;;;;;;;;;5053587;28;20585;-85
2022/11/02 15:02:57;;;;;;;3.88;0.98;;;;;;;;;;5055324;28;20470;-85
2022/11/02 15:05:35;;;;;;;5.00;0.65;;;;;;;;;;5054754;28;20148;-85
2022/11/02 15:08:20;;;;;;;15.48;2.38;;;;;;;;;;5054050;28;20132;-85
2022/11/02 15:10:47;;;;;;;9.05;1.50;;;;;;;;;;5053912;28;20053;-86
2022/11/02 15:13:18;;;;;;;5.45;1.50;;;;;;;;;;5054777;28;20124;-85
2022/11/02 15:15:45;;;;;;;6.28;1.65;;;;;;;;;;5055121;28;20052;-85
2022/11/02 15:18:15;;;;;;;6.03;2.13;;;;;;;;;;5055533;28;20048;-85
2022/11/02 15:20:43;;;;;;;17.92;2.22;;;;;;;;;;5054232;28;20132;-85